METAR Data
IDs: Format: Raw Decoded Include TAF

Data at: 1519 UTC 21 Sep 2018

KMSP 211453Z 32018G28KT 10SM OVC023 12/08 A2999 RMK AO2 PK WND 31030/1443 SLP156 60000 T01170078 51057
KMSP 211403Z 30014KT 10SM OVC017 11/09 A2994 RMK AO2 PRESRR PRESENT WX VCSH T01110094
KMSP 211353Z 29015G25KT 10SM OVC016 11/09 A2993 RMK AO2 PK WND 30029/1339 DZE39 SLP137 PRESENT WX VCSH P0000 T01110094
KMSP 211340Z 30017G29KT 7SM OVC017 11/09 A2992 RMK AO2 PK WND 30029/1339 DZE39 PRESRR PRESENT WX VCSH P0000 T01110094
KMSP 211316Z 29015G25KT 10SM -DZ FEW010 OVC015 11/09 A2990 RMK AO2 PK WND 28026/1255 P0000 T01110094
KMSP 211253Z 28015G25KT 9SM -DZ OVC014 11/10 A2989 RMK AO2 PK WND 26030/1211 RAE02B44E51DZB04 PRESRR SLP122 P0000 T01060100
KMSP 211240Z 28020G27KT 9SM -DZ OVC014 11/10 A2987 RMK AO2 PK WND 26030/1211 RAE02DZB04 PRESRR P0000 T01110100
KMSP 211153Z 27021G30KT 7SM -RA BKN014 OVC021 12/11 A2982 RMK AO2 PK WND 28033/1118 DZB29E52RAB52 SLP097 P0000 60001 70314 T01170106 10183 20117 53041
KMSP 211141Z 28019G29KT 9SM -DZ BKN018 OVC022 12/11 A2981 RMK AO2 PK WND 28033/1118 DZB29 PRESRR P0000 T01220106
KMSP 211053Z 28017G24KT 10SM BKN026 OVC031 13/11 A2976 RMK AO2 SLP076 T01330111
KMSP 211022Z 27011G23KT 10SM BKN024 OVC032 14/12 A2974 RMK AO2 T01390117
KMSP 211005Z 27015G22KT 10SM SCT023 BKN032 14/12 A2975 RMK AO2 T01390122
KMSP 210953Z 26012G23KT 10SM FEW010 BKN024 BKN037 14/12 A2973 RMK AO2 PK WND 25029/0917 RAE45 SLP066 P0001 T01390122
KMSP 210945Z 28014G23KT 10SM SCT010 BKN016 OVC032 14/13 A2972 RMK AO2 PK WND 25029/0917 RAE45 P0001 T01390128
KMSP 210938Z 28013KT 7SM -RA FEW008 BKN014 OVC020 14/13 A2973 RMK AO2 PK WND 25029/0917 P0001 T01390133
KMSP 210928Z 27014G23KT 6SM -RA BR SCT011 OVC019 14/13 A2972 RMK AO2 PK WND 25029/0917 P0000 T01390133
KMSP 210918Z 26017G29KT 2 1/2SM -RA BR FEW008 BKN015 OVC021 14/13 A2972 RMK AO2 PK WND 25029/0917 P0000 T01390133
KMSP 210853Z 28016G24KT 10SM -RA OVC021 16/13 A2969 RMK AO2 PK WND 27034/0800 RAB53 SLP054 P0000 60000 T01560128 53029
KMSP 210753Z 28015G28KT 10SM OVC017 16/14 A2966 RMK AO2 PK WND 27032/0728 SLP042 T01610139
KMSP 210653Z 27015G28KT 10SM OVC017 17/15 A2963 RMK AO2 PK WND 28031/0637 SLP031 T01720150
KMSP 210553Z 28021G36KT 10SM BKN019 OVC024 18/16 A2961 RMK AO2 PK WND 27036/0547 SLP023 60047 T01830156 10200 20183 402000150 52014
KMSP 210453Z 24017G29KT 10SM BKN016 OVC024 19/18 A2959 RMK AO2 PK WND 25029/0453 SLP016 T01940183
KMSP 210450Z 25016G28KT 10SM BKN016 OVC022 19/18 A2959 RMK AO2 PK WND 25028/0446
KMSP 210353Z 23011G21KT 10SM OVC012 19/19 A2956 RMK AO2 SLP009 T01940189
KMSP 210330Z 23013G18KT 10SM BKN011 OVC027 19/19 A2956 RMK AO2 T01940189
KMSP 210321Z 23011G18KT 10SM SCT010 BKN024 OVC029 19/19 A2956 RMK AO2 T01940189
KMSP 210253Z 23007KT 10SM OVC032 19/19 A2955 RMK AO2 SLP005 60047 T01940189 56005
KMSP 210156Z 19007KT 10SM FEW005 SCT039 OVC050 19/18 A2957 RMK AO2 T01890183
KMSP 210153Z 18007KT 10SM FEW039 OVC050 19/18 A2956 RMK AO2 RAE08 SLP008 P0001 T01890183
KMSP 210121Z 19008KT 10SM SCT005 SCT140 SCT170 BKN220 18/18 A2957 RMK AO2 LTG DSNT E RAE08 PRESRR P0001 T01830183
KMSP 210059Z 14006KT 10SM -RA FEW005 SCT100 BKN150 18/18 A2952 RMK AO2 P0000 T01830183
KMSP 210053Z 12005KT 7SM -RA BKN110 BKN140 18/18 A2952 RMK AO2 WSHFT 0021 LTG DSNT NE AND E TSE42 SLP994 P0046 T01830183
KMSP 210045Z 09009KT 6SM VCTS -RA BR FEW006 SCT041 BKN100CB OVC140 18/18 A2950 RMK AO2 WSHFT 0021 LTG DSNT N-E TSE42 VCTS NE-SE MOV E P0045 T01830183
KMSP 210037Z 06010KT 6SM TSRA BR FEW008 SCT043 OVC110CB 18/18 A2949 RMK AO2 WSHFT 0021 LTG DSNT ALQDS TS OHD MOV E P0042 T01830183
KMSP 210022Z 11012KT 5SM TSRA BR SCT008 BKN032 OVC080CB 18/18 A2956 RMK AO2 LTG DSNT ALQDS TS OHD MOV E P0038 T01830183
KMSP 210008Z 27007KT 4SM TSRA BR SCT006 BKN028 OVC095CB 19/18 A2959 RMK AO2 LTG DSNT ALQDS TS OHD MOV E P0036 T01890183
KMSP 202353Z 31013G26KT 1/2SM R30L/2200VP6000FT +TSRA FG OVC008CB 18/18 A2957 RMK AO2 PK WND 28028/2349 LTG DSNT ALQDS RAE23B38 TSB2259E14B39 SLP011 TS OHD MOV E P0025 60228 T01830183 10194 20178 56016
KMSP 202348Z 27025KT 2SM +TSRA BR OVC008CB 18/18 A2963 RMK AO2 PK WND 11026/2256 LTG DSNT ALQDS RAE23B38 TSB2259E14B39 PRESRR TS OHD MOV E P0002
KMSP 202341Z 08012G24KT 10SM -TSRA OVC008CB 19/18 A2950 RMK AO2 PK WND 11026/2256 LTG DSNT ALQDS RAE23B38 TSB2259E14B39 TS OHD MOV E P0001 T01890183
KMSP 202335Z 12016G24KT 9SM VCTS OVC008CB 19/18 A2949 RMK AO2 PK WND 11026/2256 LTG DSNT ALQDS RAE23 TSB2259E14 VCTS SW-W MOV E P0001 T01890183
KMSP 202322Z 08013G20KT 4SM -RA BR BKN008 OVC014 18/18 A2951 RMK AO2 PK WND 11026/2256 LTG DSNT ALQDS TSB2259E14 P0001 T01830183
KMSP 202316Z 09009G24KT 2SM -RA BR BKN008 OVC014 18/18 A2953 RMK AO2 PK WND 11026/2256 SFC VIS 4 LTG DSNT ALQDS TSB2259E14 P0001 T01830183
KMSP 202305Z 08018KT 2SM -TSRA BR FEW010 OVC014CB 18/18 A2952 RMK AO2 PK WND 11026/2256 SFC VIS 4 LTG DSNT W-NE TSB2259 TS OHD MOV NE P0001 T01830183
KMSP 202259Z COR 11020G26KT 2SM R30L/6000VP6000FT -TSRA BR FEW008 OVC016CB 18/18 A2952 RMK AO2 PK WND 11026/2256 LTG DSNT W-NE TSB59 TS OHD MOV NE P0001 T01830183
KMSP 202253Z 13016G31KT 1 1/2SM R30L/6000VP6000FT VCTS -RA BR FEW008 OVC016CB 18/18 A2953 RMK AO2 PK WND 09031/2245 WSHFT 2216 LTG DSNT W-NE TSB2154E45 SLP997 VCTS NW-N MOV NE P0050 T01830183
KMSP 202245Z 10024G31KT 2 1/2SM VCTS -RA BR FEW006 OVC016CB 19/18 A2951 RMK AO2 PK WND 09031/2245 WSHFT 2216 LTG DSNT ALQDS TSB2154E45 PRESFR TS OHD MOV NE VCSH P0050 T01890178
KMSP 202236Z 09015G21KT 5SM -TSRA BR FEW006 SCT011 OVC016CB 18/18 A2957 RMK AO2 WSHFT 2216 LTG DSNT ALQDS TSB2154 TS OHD MOV NE P0050 T01830178
KMSP 202231Z 09015KT 6SM -TSRA BR FEW006 OVC014CB 18/18 A2959 RMK AO2 WSHFT 2216 LTG DSNT ALQDS TSB2154 TS OHD MOV NE P0050 T01830178
KMSP 202223Z 08015G20KT 4SM -TSRA BR FEW006 BKN011 OVC020CB 18/18 A2957 RMK AO2 LTG DSNT ALQDS TSB2154 TS OHD MOV NE P0049 T01830178
KMSP 202218Z 35016G20KT 4SM R30L/3000VP6000FT -TSRA BR BKN011 OVC020CB 18/18 A2959 RMK AO2 LTG DSNT ALQDS TSB2154 VIS NW-N 1 TS OHD MOV NE P0047 T01780178
KMSP 202205Z 09010G21KT 1SM R30L/2600VP6000FT +TSRA BR BKN011 BKN017 OVC028CB 18/18 A2961 RMK AO2 LTG DSNT ALQDS TSB2154 TS OHD MOV E P0014 T01830178
KMSP 202156Z 02009KT 2SM -TSRA BR BKN011 OVC028CB 18/18 A2961 RMK AO2 LTG DSNT ALQDS TSB54 TS OHD MOV E P0000 T01830178
KMSP 202153Z 35010KT 10SM VCTS -RA BKN011 OVC028CB 18/18 A2962 RMK AO2 LTG DSNT ALQDS RAE09B43 SLP028 VCTS N MOV E P0001 T01830178
KMSP 202145Z 34008KT 10SM -RA BKN011 OVC028 18/18 A2962 RMK AO2 LTG DSNT ALQDS RAE09B43 P0000 T01830183
KMSP 202139Z 03007KT 10SM SCT011 OVC028 19/18 A2962 RMK AO2 LTG DSNT ALQDS RAE09 PRESENT WX VCSH P0000 T01890183
KMSP 202111Z 10008G17KT 10SM FEW009 BKN046 OVC075 19/18 A2964 RMK AO2 LTG DSNT ALQDS RAE09 P0000 T01890183
KMSP 202053Z 12017G26KT 7SM VCTS -RA FEW005 BKN070 OVC090CB 18/18 A2965 RMK AO2 PK WND 12026/2046 LTG DSNT ALQDS TSB07E48 SLP038 VCTS E-SE MOV E P0061 60152 T01830178 58046
KMSP 202036Z 12012G22KT 5SM R30L/2800VP6000FT -TSRA BR FEW005 BKN032 OVC070CB 18/18 A2968 RMK AO2 LTG DSNT ALQDS TSB07 TS OHD MOV E P0054 T01830178
KMSP 202031Z 10013G24KT 2SM R30L/2800VP6000FT +TSRA BR SCT005 OVC030CB 18/18 A2967 RMK AO2 LTG DSNT ALQDS TSB07 PRESFR TS OHD MOV E P0050 T01780178
KMSP 202018Z 12008KT 2SM R30L/4500VP6000FT +TSRA BR BKN033 BKN045 OVC070CB 18/18 A2970 RMK AO2 LTG DSNT ALQDS TSB07 TS OHD MOV E P0034 T01780178
KMSP 202012Z 12012KT 2SM R30L/2800V6000FT +TSRA BR BKN026 BKN043 OVC055CB 18/18 A2971 RMK AO2 LTG DSNT ALQDS TSB07 TS OHD MOV E P0030 T01780178
KMSP 202007Z COR 11016KT 1SM R30L/2600V4000FT +TSRA BR SCT024 BKN045 OVC060CB 18/18 A2970 RMK AO2 LTG DSNT ALQDS TSB07 TS OHD MOV E P0023 T01830178
KMSP 202001Z 14016G19KT 3/4SM R30L/2600VP6000FT VCTS +RA BR FEW040 BKN060 OVC070CB 18/18 A2973 RMK AO2 VIS 1/4V5 LTG DSNT ALQDS VCTS SW-W MOV E P0014 T01830178
KMSP 201958Z 13015G19KT 2SM R30L/4000VP6000FT VCTS +RA BR FEW040 BKN060 OVC070CB 19/18 A2974 RMK AO2 VIS 3/4V5 LTG DSNT ALQDS VCTS SW-W MOV E P0008 T01890178
KMSP 201956Z 13013G16KT 3SM R30L/5000VP6000FT VCTS +RA BR FEW040 BKN060 OVC070CB 19/18 A2974 RMK AO2 LTG DSNT ALQDS VCTS SW-W MOV E P0003 T01890178
KMSP 201953Z 12008G16KT 7SM -RA SCT046 BKN060 OVC070 19/18 A2974 RMK AO2 PK WND 10034/1858 WSHFT 1846 LTG DSNT ALQDS RAE35B41 TSE16 PRESRR SLP069 P0035 T01890178
KMSP 201935Z 11013G22KT 10SM SCT060 BKN075 OVC100 19/17 A2971 RMK AO2 PK WND 10034/1858 WSHFT 1846 LTG DSNT ALQDS RAE35 TSE16 P0027 T01890172
KMSP 201917Z 12015G28KT 8SM VCTS RA SCT026 BKN065CB OVC110 19/17 A2972 RMK AO2 PK WND 10034/1858 WSHFT 1846 LTG DSNT ALQDS TSE16 VCTS E-SE MOV E P0026 T01940172
KMSP 201901Z 10023G34KT 5SM R30L/3000V5500FT +TSRA BR FEW009 BKN020 OVC038CB 19/18 A2971 RMK AO2 PK WND 10034/1858 WSHFT 1846 LTG DSNT NE AND S AND SW VIS NE-S 2 TS OHD MOV E P0023 T01890178
KMSP 201853Z 11026G32KT 1/2SM R30L/3500VP6000FT +TSRA FG SCT009 BKN020 OVC040CB 18/18 A2973 RMK AO2 PK WND 11032/1851 LTG DSNT NE AND SW RAB02E19B29 TSB26 PRESFR SLP065 TS OHD MOV E P0056 T01830178
KMSP 201847Z 12017G24KT 1SM R30L/P6000FT +TSRA BR BKN009 OVC038CB 18/18 A2981 RMK AO2 LTG DSNT N AND NE AND SW RAB02E19B29 TSB26 VIS SE-S 7 TS OHD MOV E P0021
KMSP 201827Z 36009KT 10SM TS OVC009CB 18/18 A2980 RMK AO2 LTG DSNT ALQDS RAB02E19 TSB26 PRESRR TS OHD MOV E P0005 T01830178
KMSP 201818Z 07010G24KT 10SM VCTS -RA OVC007CB 18/18 A2977 RMK AO2 LTG DSNT SW-NW RAB02 VCTS W-NW MOV NE P0005 T01830178
KMSP 201753Z 10014KT 10SM OVC007 18/18 A2979 RMK AO2 RAE50 SLP086 P0000 60038 T01830178 10183 20156 58054
KMSP 201700Z 09011KT 10SM -RA OVC005 18/18 A2984 RMK AO2 P0000 T01780178
KMSP 201653Z 09012KT 10SM -RA BKN004 OVC075 18/18 A2984 RMK AO2 SLP103 P0003 T01780178
KMSP 201635Z 10014G21KT 10SM -RA BKN004 BKN055 OVC110 18/18 A2984 RMK AO2 PRESFR P0002 T01780178
KMSP 201553Z 07005KT 8SM -RA FEW005 OVC100 17/17 A2992 RMK AO2 SLP131 P0007 T01670167
KMSP 201520Z 09006KT 6SM -RA BR SCT006 BKN095 OVC110 17/17 A2995 RMK AO2 P0001 T01670167
KMSP 201511Z 09007KT 8SM -RA SCT006 BKN023 OVC120 17/17 A2994 RMK AO2 P0001 T01670167
KMSP 201453Z 07004KT 8SM -RA BKN006 OVC023 17/17 A2995 RMK AO2 SLP142 P0005 60028 T01670167 55004
KMSP 201443Z 05006KT 7SM -RA SCT006 BKN016 OVC110 17/16 A2994 RMK AO2 PRESFR P0004 T01670161
KMSP 201353Z 05006KT 8SM -RA BKN007 BKN100 OVC120 16/16 A2993 RMK AO2 SLP134 P0010 T01610161
KMSP 201325Z 08008KT 7SM RA BKN007 OVC010 16/16 A2994 RMK AO2 P0007 T01610161
KMSP 201253Z 06005KT 7SM RA OVC008 16/16 A2997 RMK AO2 SLP148 P0013 T01560156
KMSP 201244Z 04006KT 5SM RA BR OVC008 16/16 A2997 RMK AO2 P0011 T01560156
KMSP 201153Z 01006KT 5SM RA BR OVC006 16/16 A2996 RMK AO2 SLP146 P0006 60015 70033 T01610161 10161 20150 55002
KMSP 201128Z 00000KT 7SM -RA BKN006 OVC014 16/16 A2996 RMK AO2 P0001 T01610161
KMSP 201112Z 11005KT 10SM -RA SCT006 BKN013 OVC022 16/16 A2994 RMK AO2 P0001 T01610161
KMSP 201053Z 09009KT 8SM -RA BKN005 BKN011 OVC022 16/16 A2992 RMK AO2 SLP132 P0003 T01560156
KMSP 201030Z 07007KT 5SM -RA BR BKN005 OVC013 16/16 A2994 RMK AO2 P0001 T01560156
KMSP 200953Z 05007KT 4SM -RA BR OVC004 16/16 A2995 RMK AO2 SLP140 P0006 T01560156
KMSP 200853Z 06007KT 3SM -RA BR OVC004 15/15 A2997 RMK AO2 RAB44 SLP148 P0000 60000 T01500150 58007
KMSP 200753Z 04007KT 5SM BR OVC004 15/15 A2998 RMK AO2 SLP153 T01500150
KMSP 200721Z 05008KT 4SM BR OVC004 15/15 A2999 RMK AO2 T01500150
KMSP 200653Z 02007KT 6SM BR OVC005 15/14 A3000 RMK AO2 SLP159 T01500144
KMSP 200624Z 03006KT 6SM BR OVC005 15/15 A3000 RMK AO2 T01500150
KMSP 200553Z 04008KT 5SM BR OVC004 15/14 A2999 RMK AO2 SLP155 T01500144 10161 20150 401780150 58001
KMSP 200453Z 03007KT 4SM BR OVC004 15/15 A3001 RMK AO2 SLP162 T01500150
KMSP 200353Z 02011KT 5SM BR OVC004 15/15 A2998 RMK AO2 SLP154 T01500150